Gil Vicente — CSKG — position and weather

sailwx.info

Track history (hours):
 
Tides and Currents Weather Stations Pressure Air Temp Water Temp Dewpoint Dewpoint Depression Visibility Wind Speed Wind Dir Waves Ship Positions

Gil Vicente

Last reported at 2017-Feb-27 20:33 UTC. Time now 2017-Feb-28 05:39 UTC.
Position N 38°42' W 009°08'.

Length 49 m.

Type: Passenger vessel. MMSI: 263701390.

Date/timePositionNaut miles runAvg speedWind from/ knotsBaromVisibWave heightAir tempDewpointWater temp
2017-Feb-27 20:33N 38°42' W 009°08'0 0.4
2017-Feb-27 19:33N 38°42' W 009°08'1 1.0
2017-Feb-27 18:33N 38°41' W 009°08'3 3.1
2017-Feb-27 17:32N 38°39' W 009°05'4 4.0
2017-Feb-27 16:33N 38°42' W 009°08'1 1.4
2017-Feb-27 15:33N 38°41' W 009°08'0 0.0
2017-Feb-27 14:33N 38°41' W 009°08'0 0.1
2017-Feb-27 13:33N 38°41' W 009°08'0 0.0
2017-Feb-27 12:33N 38°41' W 009°08'0 0.1
2017-Feb-27 11:33N 38°41' W 009°08'3 3.0
2017-Feb-27 10:34N 38°39' W 009°05'4 4.2
2017-Feb-27 09:33N 38°42' W 009°08'0 0.0
2017-Feb-27 08:33N 38°42' W 009°08'3 3.1
2017-Feb-27 07:33N 38°40' W 009°06'  
2017-Feb-24 21:34N 38°41' W 009°08'3 2.7
2017-Feb-24 20:34N 38°39' W 009°05'0 0.3
2017-Feb-24 19:33N 38°39' W 009°05'0 0.3
2017-Feb-24 18:34N 38°39' W 009°05'1 1.5
2017-Feb-24 17:34N 38°40' W 009°06'1 1.3
2017-Feb-24 16:32N 38°39' W 009°05'0 0.0
2017-Feb-24 09:33N 38°39' W 009°05'4 3.9
2017-Feb-24 08:34N 38°42' W 009°08'2 2.4
2017-Feb-24 07:34N 38°40' W 009°07'2 1.8
2017-Feb-24 06:34N 38°39' W 009°05'0 0.0
2017-Feb-23 21:19N 38°39' W 009°05'3 4.0
2017-Feb-23 20:33N 38°41' W 009°08'2 1.5
2017-Feb-23 19:33N 38°40' W 009°07'3 2.5
2017-Feb-23 18:33N 38°42' W 009°08'0 0.2
2017-Feb-23 17:33N 38°42' W 009°08'1 0.7
2017-Feb-23 16:33N 38°41' W 009°08'3 3.5
2017-Feb-23 15:33N 38°39' W 009°05'2 1.7
2017-Feb-23 14:33N 38°40' W 009°07'0 0.3
2017-Feb-23 13:33N 38°40' W 009°06'1 1.3
2017-Feb-23 12:33N 38°39' W 009°05'0 0.0
2017-Feb-23 11:33N 38°39' W 009°05'3 2.7
2017-Feb-23 10:33N 38°41' W 009°08'3 2.7
2017-Feb-23 09:33N 38°39' W 009°05'1 1.0
2017-Feb-23 08:32N 38°40' W 009°06'3 2.8
2017-Feb-23 07:33N 38°42' W 009°08'0 0.5
2017-Feb-23 06:33N 38°42' W 009°08'0 0.1
2017-Feb-23 05:33N 38°42' W 009°08'4 4.1
2017-Feb-23 04:33N 38°39' W 009°05'0 0.0
2017-Feb-23 03:33N 38°39' W 009°05'0 0.0
2017-Feb-23 02:33N 38°39' W 009°05'1 0.6
2017-Feb-23 01:33N 38°39' W 009°05'0 0.1
2017-Feb-23 00:33N 38°39' W 009°05'0 0.1
2017-Feb-22 23:33N 38°39' W 009°05'1 1.2
2017-Feb-22 22:33N 38°40' W 009°07'0 0.1
2017-Feb-22 21:33N 38°40' W 009°07'2 1.6
2017-Feb-22 20:33N 38°39' W 009°05'0 0.0
2017-Feb-22 19:33N 38°39' W 009°05'2 1.5
2017-Feb-22 18:33N 38°40' W 009°07'3 2.6
2017-Feb-22 17:33N 38°42' W 009°08'4 3.6
2017-Feb-22 16:30N 38°39' W 009°05'0 0.0
2017-Feb-22 09:33N 38°39' W 009°05'1 1.3
2017-Feb-22 08:33N 38°40' W 009°06'3 2.8
2017-Feb-22 07:33N 38°42' W 009°08'0 0.4
2017-Feb-22 06:33N 38°42' W 009°08'0 0.0
2017-Feb-22 05:33N 38°42' W 009°08'4 1.3
2017-Feb-22 02:25N 38°39' W 009°05'1 0.7
2017-Feb-22 01:34N 38°39' W 009°06'0 0.0
2017-Feb-22 00:34N 38°39' W 009°05'0 0.0
2017-Feb-21 23:34N 38°39' W 009°05'1 1.2
2017-Feb-21 22:34N 38°40' W 009°07'0 0.1
2017-Feb-21 21:34N 38°40' W 009°07'2 1.7
2017-Feb-21 20:34N 38°39' W 009°05'0 0.0
2017-Feb-21 19:33N 38°39' W 009°05'2 1.8
2017-Feb-21 18:33N 38°40' W 009°07'3 2.6
2017-Feb-21 17:33N 38°42' W 009°08'4 0.7
2017-Feb-21 11:21N 38°39' W 009°05'2 2.1
2017-Feb-21 10:33N 38°40' W 009°07'0 0.0
2017-Feb-21 09:33N 38°40' W 009°07'0 0.0
2017-Feb-21 08:33N 38°40' W 009°07'2 1.7
2017-Feb-21 07:33N 38°39' W 009°05'0 0.0
2017-Feb-21 06:33N 38°39' W 009°05'0 0.0
2017-Feb-21 05:33N 38°39' W 009°05'4 0.6
2017-Feb-20 23:33N 38°42' W 009°08'1 1.0
2017-Feb-20 22:33N 38°41' W 009°08'0 0.1
2017-Feb-20 21:33N 38°41' W 009°08'3 2.8
2017-Feb-20 20:33N 38°39' W 009°05'0 0.4
2017-Feb-20 19:33N 38°39' W 009°05'0 0.4
2017-Feb-20 18:33N 38°39' W 009°05'1 1.3
2017-Feb-20 17:33N 38°40' W 009°06'1 1.2
2017-Feb-20 16:33N 38°39' W 009°05'0 0.0
2017-Feb-20 10:25N 38°39' W 009°05'1 1.7
2017-Feb-20 09:33N 38°40' W 009°06'0 0.3
2017-Feb-20 08:33N 38°40' W 009°06'1 1.3
2017-Feb-20 07:33N 38°39' W 009°05'0 0.0
2017-Feb-20 06:33N 38°39' W 009°05'3 0.3
2017-Feb-19 21:34N 38°41' W 009°08'3 2.9
2017-Feb-19 20:33N 38°39' W 009°05'2 1.8
2017-Feb-19 19:34N 38°40' W 009°07'0 0.2
2017-Feb-19 18:33N 38°40' W 009°07'0 0.1
2017-Feb-19 17:34N 38°40' W 009°07'0 0.0
2017-Feb-19 16:34N 38°40' W 009°07'0 0.1
2017-Feb-19 15:34N 38°40' W 009°07'0 0.2
2017-Feb-19 14:33N 38°40' W 009°06'0 0.1
2017-Feb-19 13:33N 38°40' W 009°06'1 1.4
2017-Feb-19 12:34N 38°39' W 009°05'0 0.0
2017-Feb-19 07:32N 38°39' W 009°05'0 0.1
2017-Feb-19 06:33N 38°39' W 009°05'3 0.3
2017-Feb-18 21:33N 38°41' W 009°08'3 2.9
2017-Feb-18 20:33N 38°39' W 009°05'1 1.4
2017-Feb-18 19:33N 38°40' W 009°06'0 0.3
2017-Feb-18 18:33N 38°40' W 009°07'0 0.1
2017-Feb-18 17:33N 38°40' W 009°06'0 0.3
2017-Feb-18 16:33N 38°40' W 009°07'0 0.4
2017-Feb-18 15:33N 38°40' W 009°06'0 0.3
2017-Feb-18 14:33N 38°40' W 009°06'0 0.2
2017-Feb-18 13:33N 38°40' W 009°06'1 1.4
2017-Feb-18 12:33N 38°39' W 009°05'0 0.0
2017-Feb-18 11:33N 38°39' W 009°05'3 3.0
2017-Feb-18 10:33N 38°41' W 009°08'0 0.1
2017-Feb-18 09:33N 38°41' W 009°08'0 0.1
2017-Feb-18 08:33N 38°41' W 009°08'3 2.9
2017-Feb-18 07:33N 38°39' W 009°05'0 0.3
2017-Feb-18 06:33N 38°39' W 009°05'0 0.4
2017-Feb-18 05:33N 38°39' W 009°05'0 0.0
2017-Feb-18 04:33N 38°39' W 009°05'0 0.0
2017-Feb-18 03:33N 38°39' W 009°05'0 0.0
2017-Feb-18 02:33N 38°39' W 009°05'0 0.0
2017-Feb-18 01:33N 38°39' W 009°05'0 0.0
2017-Feb-18 00:33N 38°39' W 009°05'4 3.8
2017-Feb-17 23:33N 38°42' W 009°08'1 1.1
2017-Feb-17 22:33N 38°41' W 009°08'0 0.2
2017-Feb-17 21:33N 38°41' W 009°08'3 2.8
2017-Feb-17 20:33N 38°39' W 009°05'  
Track history (hours):
 
Tides and Currents Weather Stations Pressure Air Temp Water Temp Dewpoint Dewpoint Depression Visibility Wind Speed Wind Dir Waves Ship Positions

Gil Vicente

Last reported at 2017-Feb-27 20:33 UTC. Time now 2017-Feb-28 05:39 UTC.
Position N 38°42' W 009°08'.

Length 49 m.

Type: Passenger vessel. MMSI: 263701390.

Date/timePositionNaut miles runAvg speedWind from/ knotsBaromVisibWave heightAir tempDewpointWater temp
2017-Feb-27 20:33N 38°42' W 009°08'0 0.4
2017-Feb-27 19:33N 38°42' W 009°08'1 1.0
2017-Feb-27 18:33N 38°41' W 009°08'3 3.1
2017-Feb-27 17:32N 38°39' W 009°05'4 4.0
2017-Feb-27 16:33N 38°42' W 009°08'1 1.4
2017-Feb-27 15:33N 38°41' W 009°08'0 0.0
2017-Feb-27 14:33N 38°41' W 009°08'0 0.1
2017-Feb-27 13:33N 38°41' W 009°08'0 0.0
2017-Feb-27 12:33N 38°41' W 009°08'0 0.1
2017-Feb-27 11:33N 38°41' W 009°08'3 3.0
2017-Feb-27 10:34N 38°39' W 009°05'4 4.2
2017-Feb-27 09:33N 38°42' W 009°08'0 0.0
2017-Feb-27 08:33N 38°42' W 009°08'3 3.1
2017-Feb-27 07:33N 38°40' W 009°06'  
2017-Feb-24 21:34N 38°41' W 009°08'3 2.7
2017-Feb-24 20:34N 38°39' W 009°05'0 0.3
2017-Feb-24 19:33N 38°39' W 009°05'0 0.3
2017-Feb-24 18:34N 38°39' W 009°05'1 1.5
2017-Feb-24 17:34N 38°40' W 009°06'1 1.3
2017-Feb-24 16:32N 38°39' W 009°05'0 0.0
2017-Feb-24 09:33N 38°39' W 009°05'4 3.9
2017-Feb-24 08:34N 38°42' W 009°08'2 2.4
2017-Feb-24 07:34N 38°40' W 009°07'2 1.8
2017-Feb-24 06:34N 38°39' W 009°05'0 0.0
2017-Feb-23 21:19N 38°39' W 009°05'3 4.0
2017-Feb-23 20:33N 38°41' W 009°08'2 1.5
2017-Feb-23 19:33N 38°40' W 009°07'3 2.5
2017-Feb-23 18:33N 38°42' W 009°08'0 0.2
2017-Feb-23 17:33N 38°42' W 009°08'1 0.7
2017-Feb-23 16:33N 38°41' W 009°08'3 3.5
2017-Feb-23 15:33N 38°39' W 009°05'2 1.7
2017-Feb-23 14:33N 38°40' W 009°07'0 0.3
2017-Feb-23 13:33N 38°40' W 009°06'1 1.3
2017-Feb-23 12:33N 38°39' W 009°05'0 0.0
2017-Feb-23 11:33N 38°39' W 009°05'3 2.7
2017-Feb-23 10:33N 38°41' W 009°08'3 2.7
2017-Feb-23 09:33N 38°39' W 009°05'1 1.0
2017-Feb-23 08:32N 38°40' W 009°06'3 2.8
2017-Feb-23 07:33N 38°42' W 009°08'0 0.5
2017-Feb-23 06:33N 38°42' W 009°08'0 0.1
2017-Feb-23 05:33N 38°42' W 009°08'4 4.1
2017-Feb-23 04:33N 38°39' W 009°05'0 0.0
2017-Feb-23 03:33N 38°39' W 009°05'0 0.0
2017-Feb-23 02:33N 38°39' W 009°05'1 0.6
2017-Feb-23 01:33N 38°39' W 009°05'0 0.1
2017-Feb-23 00:33N 38°39' W 009°05'0 0.1
2017-Feb-22 23:33N 38°39' W 009°05'1 1.2
2017-Feb-22 22:33N 38°40' W 009°07'0 0.1
2017-Feb-22 21:33N 38°40' W 009°07'2 1.6
2017-Feb-22 20:33N 38°39' W 009°05'0 0.0
2017-Feb-22 19:33N 38°39' W 009°05'2 1.5
2017-Feb-22 18:33N 38°40' W 009°07'3 2.6
2017-Feb-22 17:33N 38°42' W 009°08'4 3.6
2017-Feb-22 16:30N 38°39' W 009°05'0 0.0
2017-Feb-22 09:33N 38°39' W 009°05'1 1.3
2017-Feb-22 08:33N 38°40' W 009°06'3 2.8
2017-Feb-22 07:33N 38°42' W 009°08'0 0.4
2017-Feb-22 06:33N 38°42' W 009°08'0 0.0
2017-Feb-22 05:33N 38°42' W 009°08'4 1.3
2017-Feb-22 02:25N 38°39' W 009°05'1 0.7
2017-Feb-22 01:34N 38°39' W 009°06'0 0.0
2017-Feb-22 00:34N 38°39' W 009°05'0 0.0
2017-Feb-21 23:34N 38°39' W 009°05'1 1.2
2017-Feb-21 22:34N 38°40' W 009°07'0 0.1
2017-Feb-21 21:34N 38°40' W 009°07'2 1.7
2017-Feb-21 20:34N 38°39' W 009°05'0 0.0
2017-Feb-21 19:33N 38°39' W 009°05'2 1.8
2017-Feb-21 18:33N 38°40' W 009°07'3 2.6
2017-Feb-21 17:33N 38°42' W 009°08'4 0.7
2017-Feb-21 11:21N 38°39' W 009°05'2 2.1
2017-Feb-21 10:33N 38°40' W 009°07'0 0.0
2017-Feb-21 09:33N 38°40' W 009°07'0 0.0
2017-Feb-21 08:33N 38°40' W 009°07'2 1.7
2017-Feb-21 07:33N 38°39' W 009°05'0 0.0
2017-Feb-21 06:33N 38°39' W 009°05'0 0.0
2017-Feb-21 05:33N 38°39' W 009°05'4 0.6
2017-Feb-20 23:33N 38°42' W 009°08'1 1.0
2017-Feb-20 22:33N 38°41' W 009°08'0 0.1
2017-Feb-20 21:33N 38°41' W 009°08'3 2.8
2017-Feb-20 20:33N 38°39' W 009°05'0 0.4
2017-Feb-20 19:33N 38°39' W 009°05'0 0.4
2017-Feb-20 18:33N 38°39' W 009°05'1 1.3
2017-Feb-20 17:33N 38°40' W 009°06'1 1.2
2017-Feb-20 16:33N 38°39' W 009°05'0 0.0
2017-Feb-20 10:25N 38°39' W 009°05'1 1.7
2017-Feb-20 09:33N 38°40' W 009°06'0 0.3
2017-Feb-20 08:33N 38°40' W 009°06'1 1.3
2017-Feb-20 07:33N 38°39' W 009°05'0 0.0
2017-Feb-20 06:33N 38°39' W 009°05'3 0.3
2017-Feb-19 21:34N 38°41' W 009°08'3 2.9
2017-Feb-19 20:33N 38°39' W 009°05'2 1.8
2017-Feb-19 19:34N 38°40' W 009°07'0 0.2
2017-Feb-19 18:33N 38°40' W 009°07'0 0.1
2017-Feb-19 17:34N 38°40' W 009°07'0 0.0
2017-Feb-19 16:34N 38°40' W 009°07'0 0.1
2017-Feb-19 15:34N 38°40' W 009°07'0 0.2
2017-Feb-19 14:33N 38°40' W 009°06'0 0.1
2017-Feb-19 13:33N 38°40' W 009°06'1 1.4
2017-Feb-19 12:34N 38°39' W 009°05'0 0.0
2017-Feb-19 07:32N 38°39' W 009°05'0 0.1
2017-Feb-19 06:33N 38°39' W 009°05'3 0.3
2017-Feb-18 21:33N 38°41' W 009°08'3 2.9
2017-Feb-18 20:33N 38°39' W 009°05'1 1.4
2017-Feb-18 19:33N 38°40' W 009°06'0 0.3
2017-Feb-18 18:33N 38°40' W 009°07'0 0.1
2017-Feb-18 17:33N 38°40' W 009°06'0 0.3
2017-Feb-18 16:33N 38°40' W 009°07'0 0.4
2017-Feb-18 15:33N 38°40' W 009°06'0 0.3
2017-Feb-18 14:33N 38°40' W 009°06'0 0.2
2017-Feb-18 13:33N 38°40' W 009°06'1 1.4
2017-Feb-18 12:33N 38°39' W 009°05'0 0.0
2017-Feb-18 11:33N 38°39' W 009°05'3 3.0
2017-Feb-18 10:33N 38°41' W 009°08'0 0.1
2017-Feb-18 09:33N 38°41' W 009°08'0 0.1
2017-Feb-18 08:33N 38°41' W 009°08'3 2.9
2017-Feb-18 07:33N 38°39' W 009°05'0 0.3
2017-Feb-18 06:33N 38°39' W 009°05'0 0.4
2017-Feb-18 05:33N 38°39' W 009°05'0 0.0
2017-Feb-18 04:33N 38°39' W 009°05'0 0.0
2017-Feb-18 03:33N 38°39' W 009°05'0 0.0
2017-Feb-18 02:33N 38°39' W 009°05'0 0.0
2017-Feb-18 01:33N 38°39' W 009°05'0 0.0
2017-Feb-18 00:33N 38°39' W 009°05'4 3.8
2017-Feb-17 23:33N 38°42' W 009°08'1 1.1
2017-Feb-17 22:33N 38°41' W 009°08'0 0.2
2017-Feb-17 21:33N 38°41' W 009°08'3 2.8
2017-Feb-17 20:33N 38°39' W 009°05'  

Dump ship's entire track history